My webcam more information My webcam


Thunder radar more information blitzortung!


Rain radar more information rain snow radar


Visit our other weather sites:

Template documentation
and downloads

And another site



Nearby METAR Reports

   
KAVP - Albrightsville, PA
Updated: Nov 24 2017 7:54 pm
Clear  
Clear  
   Wind: Calm
Wind: Calm
Temperature: 42.8°F
Dew Point: 21.2°F
Humidity: 42%
Barometer: 29.9 inHg
Clouds: Clear
Visibility: 10 mi
Cloud details: Clear
KAVP 250054Z 00000KT 10SM CLR 06/M06 A2990 RMK AO2 SLP128 T00611061
KIWA - Apache Junction, AZ
Updated: Nov 24 2017 7:47 pm
Partly Cloudy  
Partly Cloudy  
   Wind: Calm
Wind: Calm
Temperature: 77°F
Dew Point: 33.8°F
Humidity: 21%
Barometer: 29.89 inHg
Clouds: Partly Cloudy
Visibility: 20 mi
Cloud details: Partly Cloudy 7620 m
KIWA 250047Z 00000KT 20SM SCT250 25/01 A2989
KPKB - Blue Rock, OH
Updated: Nov 24 2017 7:53 pm
Clear  
Clear  
   Wind: South 5.8 mph
Wind: South 5.8 mph
Temperature: 39.2°F
Wind Chill: 35.6°F
Dew Point: 21.2°F
Humidity: 48%
Barometer: 29.86 inHg
Clouds: Clear
Visibility: 10 mi
Cloud details: Clear
KPKB 250053Z 17005KT 10SM CLR 04/M06 A2986 RMK AO2 SLP119 T00441061
KHVN - Branford, CT
Updated: Nov 24 2017 7:53 pm
Clear  
Clear  
   Wind: SSW 5.8 mph
Wind: SSW 5.8 mph
Temperature: 46.4°F
Wind Chill: 44.6°F
Dew Point: 35.6°F
Humidity: 66%
Barometer: 29.97 inHg
Clouds: Clear
Visibility: 10 mi
Cloud details: Clear
KHVN 250053Z 21005KT 10SM CLR 08/02 A2997 RMK AO2 SLP148 T00830017
KPHX - Carefree, AZ
Updated: Nov 24 2017 7:51 pm
Few Clouds  
Few Clouds  
   Wind: Calm
Wind: Calm
Temperature: 80.6°F
Dew Point: 35.6°F
Humidity: 20%
Barometer: 29.86 inHg
Clouds: Few Clouds
Visibility: 10 mi
Cloud details: Few Clouds 6096 m,
Few Clouds 7620 m
KPHX 250051Z 00000KT 10SM FEW200 FEW250 27/02 A2986 RMK AO2 SLP099 T02670022
 

Script developed by  Saratoga-weather.org Adapted for the template by  Weerstation Leuven

You find our weather info also at:

WeatherCloud

Weather Underground

Citizen Weather Observer Program (CWOP)

HAMweather, WeatherForYou, PWS Weather

Anything Weather